Terminal Aerodrome Forecast
Issued by NWS Lake Charles, LA

Home | Current Version | Previous Version | Text Only | Print | Product List | Glossary On
Versions: 1 2 3 4 5 6 7 8 9 10 11 12 13 14 15 16 17
000
FTUS44 KLCH 162300
TAFLFT
TAF
KLFT 162338Z 1700/1724 16007KT P6SM SCT045
     FM170100 12004KT P6SM SCT025
     FM171200 07004KT P6SM BKN025
     FM171600 09006KT P6SM SCT025 BKN035=

USA.gov is the U.S. government's official web portal to all federal, state and local government web resources and services.